sensor_id;sensor_type;location;lat;lon;timestamp;pressure;altitude;pressure_sealevel;temperature;humidity
1926;BME280;964;42.606;23.588;2023-07-13T00:00:46;94773.91;;;43.58;22.06
1926;BME280;964;42.606;23.588;2023-07-13T00:03:12;94751.31;;;43.94;21.75
1926;BME280;964;42.606;23.588;2023-07-13T00:05:41;94756.78;;;44.17;21.40
1926;BME280;964;42.606;23.588;2023-07-13T00:08:07;94761.56;;;44.39;21.06
1926;BME280;964;42.606;23.588;2023-07-13T00:10:39;94769.84;;;44.22;21.37
1926;BME280;964;42.606;23.588;2023-07-13T00:13:07;94783.44;;;43.55;21.81
1926;BME280;964;42.606;23.588;2023-07-13T00:15:33;94773.53;;;43.69;21.82
1926;BME280;964;42.606;23.588;2023-07-13T00:18:01;94778.41;;;43.31;22.05
1926;BME280;964;42.606;23.588;2023-07-13T00:20:27;94759.63;;;42.93;22.25
1926;BME280;964;42.606;23.588;2023-07-13T00:22:55;94767.06;;;42.83;22.71
1926;BME280;964;42.606;23.588;2023-07-13T00:25:23;94768.91;;;42.88;22.82
1926;BME280;964;42.606;23.588;2023-07-13T00:27:53;94768.53;;;42.92;22.42
1926;BME280;964;42.606;23.588;2023-07-13T00:30:20;94763.28;;;41.99;22.72
1926;BME280;964;42.606;23.588;2023-07-13T00:32:47;94753.59;;;42.59;22.87
1926;BME280;964;42.606;23.588;2023-07-13T00:35:14;94742.88;;;41.69;24.03
1926;BME280;964;42.606;23.588;2023-07-13T00:37:42;94742.34;;;41.13;24.56
1926;BME280;964;42.606;23.588;2023-07-13T00:40:12;94731.88;;;41.91;23.17
1926;BME280;964;42.606;23.588;2023-07-13T00:42:40;94731.19;;;42.06;23.32
1926;BME280;964;42.606;23.588;2023-07-13T00:48:14;94728.59;;;42.16;23.47
1926;BME280;964;42.606;23.588;2023-07-13T00:50:43;94730.75;;;41.94;23.69
1926;BME280;964;42.606;23.588;2023-07-13T00:53:11;94749.13;;;42.41;22.46
1926;BME280;964;42.606;23.588;2023-07-13T00:55:39;94746.72;;;42.45;22.71
1926;BME280;964;42.606;23.588;2023-07-13T00:58:06;94752.06;;;42.28;22.65
1926;BME280;964;42.606;23.588;2023-07-13T01:00:34;94756.16;;;42.27;23.15
1926;BME280;964;42.606;23.588;2023-07-13T01:03:03;94744.00;;;42.68;22.34
1926;BME280;964;42.606;23.588;2023-07-13T01:05:32;94748.22;;;42.46;23.11
1926;BME280;964;42.606;23.588;2023-07-13T01:08:00;94749.56;;;42.75;23.98
1926;BME280;964;42.606;23.588;2023-07-13T01:10:27;94746.50;;;42.28;23.82
1926;BME280;964;42.606;23.588;2023-07-13T01:12:55;94739.19;;;41.74;23.30
1926;BME280;964;42.606;23.588;2023-07-13T01:15:37;94734.63;;;42.35;22.62
1926;BME280;964;42.606;23.588;2023-07-13T01:18:06;94738.41;;;42.83;22.89
1926;BME280;964;42.606;23.588;2023-07-13T01:20:33;94738.97;;;42.81;22.58
1926;BME280;964;42.606;23.588;2023-07-13T01:23:05;94739.81;;;42.38;23.14
1926;BME280;964;42.606;23.588;2023-07-13T01:25:33;94740.03;;;41.89;23.17
1926;BME280;964;42.606;23.588;2023-07-13T01:28:00;94737.75;;;41.80;23.26
1926;BME280;964;42.606;23.588;2023-07-13T01:30:27;94744.41;;;41.13;24.15
1926;BME280;964;42.606;23.588;2023-07-13T01:32:53;94739.38;;;41.11;24.22
1926;BME280;964;42.606;23.588;2023-07-13T01:35:20;94739.38;;;40.91;24.78
1926;BME280;964;42.606;23.588;2023-07-13T01:37:47;94745.41;;;41.02;24.29
1926;BME280;964;42.606;23.588;2023-07-13T01:40:15;94736.09;;;41.49;24.69
1926;BME280;964;42.606;23.588;2023-07-13T01:42:41;94748.22;;;41.59;23.72
1926;BME280;964;42.606;23.588;2023-07-13T01:45:08;94740.13;;;41.76;24.05
1926;BME280;964;42.606;23.588;2023-07-13T01:47:35;94750.78;;;41.29;24.03
1926;BME280;964;42.606;23.588;2023-07-13T01:50:02;94750.28;;;40.89;24.40
1926;BME280;964;42.606;23.588;2023-07-13T01:52:29;94755.44;;;40.64;24.74
1926;BME280;964;42.606;23.588;2023-07-13T01:54:55;94754.50;;;40.28;25.38
1926;BME280;964;42.606;23.588;2023-07-13T01:57:23;94754.81;;;39.77;25.75
1926;BME280;964;42.606;23.588;2023-07-13T01:59:50;94748.09;;;39.73;25.88
1926;BME280;964;42.606;23.588;2023-07-13T02:02:17;94744.38;;;40.51;24.95
1926;BME280;964;42.606;23.588;2023-07-13T02:04:44;94748.78;;;40.67;25.19
1926;BME280;964;42.606;23.588;2023-07-13T02:07:10;94744.59;;;40.94;24.32
1926;BME280;964;42.606;23.588;2023-07-13T02:09:37;94743.25;;;40.67;25.38
1926;BME280;964;42.606;23.588;2023-07-13T02:12:05;94746.91;;;40.62;24.96
1926;BME280;964;42.606;23.588;2023-07-13T02:14:35;94751.94;;;39.30;26.18
1926;BME280;964;42.606;23.588;2023-07-13T02:17:02;94747.41;;;40.40;25.14
1926;BME280;964;42.606;23.588;2023-07-13T02:19:29;94751.03;;;40.01;24.71
1926;BME280;964;42.606;23.588;2023-07-13T02:21:55;94768.19;;;39.07;25.92
1926;BME280;964;42.606;23.588;2023-07-13T02:24:22;94767.16;;;39.23;25.75
1926;BME280;964;42.606;23.588;2023-07-13T02:26:49;94754.09;;;40.10;24.89
1926;BME280;964;42.606;23.588;2023-07-13T02:29:15;94750.03;;;40.45;25.09
1926;BME280;964;42.606;23.588;2023-07-13T02:31:43;94755.94;;;41.25;23.78
1926;BME280;964;42.606;23.588;2023-07-13T02:34:10;94759.94;;;41.08;24.27
1926;BME280;964;42.606;23.588;2023-07-13T02:36:37;94758.56;;;40.27;25.54
1926;BME280;964;42.606;23.588;2023-07-13T02:39:05;94760.97;;;39.96;25.96
1926;BME280;964;42.606;23.588;2023-07-13T02:41:32;94769.97;;;39.37;26.78
1926;BME280;964;42.606;23.588;2023-07-13T02:43:59;94769.97;;;39.89;25.45
1926;BME280;964;42.606;23.588;2023-07-13T02:46:29;94772.03;;;40.23;25.18
1926;BME280;964;42.606;23.588;2023-07-13T02:48:57;94767.72;;;40.69;25.24
1926;BME280;964;42.606;23.588;2023-07-13T02:51:24;94762.38;;;40.91;24.49
1926;BME280;964;42.606;23.588;2023-07-13T02:53:51;94772.34;;;40.87;24.23
1926;BME280;964;42.606;23.588;2023-07-13T02:56:18;94759.03;;;40.72;25.16
1926;BME280;964;42.606;23.588;2023-07-13T02:58:46;94756.53;;;41.02;24.27
1926;BME280;964;42.606;23.588;2023-07-13T03:01:12;94759.19;;;40.87;25.08
1926;BME280;964;42.606;23.588;2023-07-13T03:03:44;94752.06;;;40.99;24.13
1926;BME280;964;42.606;23.588;2023-07-13T03:06:13;94746.44;;;40.71;24.86
1926;BME280;964;42.606;23.588;2023-07-13T03:08:40;94757.44;;;40.97;24.31
1926;BME280;964;42.606;23.588;2023-07-13T03:11:08;94744.94;;;41.40;24.13
1926;BME280;964;42.606;23.588;2023-07-13T03:13:36;94749.22;;;41.13;24.53
1926;BME280;964;42.606;23.588;2023-07-13T03:16:04;94746.13;;;41.52;24.21
1926;BME280;964;42.606;23.588;2023-07-13T03:18:31;94743.22;;;41.65;23.83
1926;BME280;964;42.606;23.588;2023-07-13T03:20:58;94741.13;;;41.86;23.13
1926;BME280;964;42.606;23.588;2023-07-13T03:23:26;94748.00;;;41.85;23.72
1926;BME280;964;42.606;23.588;2023-07-13T03:26:01;94746.56;;;41.99;23.58
1926;BME280;964;42.606;23.588;2023-07-13T03:28:28;94743.34;;;41.80;23.89
1926;BME280;964;42.606;23.588;2023-07-13T03:30:59;94742.13;;;41.96;23.90
1926;BME280;964;42.606;23.588;2023-07-13T03:33:26;94743.09;;;42.14;23.16
1926;BME280;964;42.606;23.588;2023-07-13T03:35:53;94755.72;;;42.08;23.85
1926;BME280;964;42.606;23.588;2023-07-13T03:38:19;94752.31;;;42.01;23.37
1926;BME280;964;42.606;23.588;2023-07-13T03:40:48;94767.00;;;41.66;23.93
1926;BME280;964;42.606;23.588;2023-07-13T03:43:14;94765.63;;;40.82;25.04
1926;BME280;964;42.606;23.588;2023-07-13T03:45:41;94751.91;;;41.90;23.32
1926;BME280;964;42.606;23.588;2023-07-13T03:48:09;94752.94;;;41.79;23.33
1926;BME280;964;42.606;23.588;2023-07-13T03:50:36;94751.50;;;42.22;23.35
1926;BME280;964;42.606;23.588;2023-07-13T03:53:03;94760.59;;;42.22;23.07
1926;BME280;964;42.606;23.588;2023-07-13T03:55:30;94762.72;;;41.93;23.63
1926;BME280;964;42.606;23.588;2023-07-13T03:58:00;94768.81;;;42.35;23.10
1926;BME280;964;42.606;23.588;2023-07-13T04:00:27;94755.53;;;42.94;22.53
1926;BME280;964;42.606;23.588;2023-07-13T04:02:54;94771.66;;;41.71;23.49
1926;BME280;964;42.606;23.588;2023-07-13T04:05:20;94767.59;;;42.16;23.46
1926;BME280;964;42.606;23.588;2023-07-13T04:07:47;94768.50;;;41.67;24.10
1926;BME280;964;42.606;23.588;2023-07-13T04:10:14;94763.31;;;42.88;22.67
1926;BME280;964;42.606;23.588;2023-07-13T04:12:40;94773.38;;;42.69;23.39
1926;BME280;964;42.606;23.588;2023-07-13T04:15:09;94774.13;;;43.60;22.68
1926;BME280;964;42.606;23.588;2023-07-13T04:17:36;94768.19;;;42.95;23.07
1926;BME280;964;42.606;23.588;2023-07-13T04:20:03;94771.09;;;43.73;22.92
1926;BME280;964;42.606;23.588;2023-07-13T04:22:30;94775.22;;;42.81;23.31
1926;BME280;964;42.606;23.588;2023-07-13T04:24:57;94774.31;;;43.47;22.84
1926;BME280;964;42.606;23.588;2023-07-13T04:27:23;94772.47;;;43.12;23.15
1926;BME280;964;42.606;23.588;2023-07-13T04:29:50;94769.25;;;43.68;22.85
1926;BME280;964;42.606;23.588;2023-07-13T04:32:18;94766.38;;;43.99;22.96
1926;BME280;964;42.606;23.588;2023-07-13T04:34:45;94773.66;;;43.94;22.65
1926;BME280;964;42.606;23.588;2023-07-13T04:37:12;94776.00;;;43.35;23.64
1926;BME280;964;42.606;23.588;2023-07-13T04:39:38;94765.31;;;44.34;22.73
1926;BME280;964;42.606;23.588;2023-07-13T04:42:05;94761.56;;;44.39;22.78
1926;BME280;964;42.606;23.588;2023-07-13T04:44:32;94758.16;;;44.48;22.52
1926;BME280;964;42.606;23.588;2023-07-13T04:46:59;94765.31;;;44.34;23.07
1926;BME280;964;42.606;23.588;2023-07-13T04:49:27;94757.75;;;45.09;22.53
1926;BME280;964;42.606;23.588;2023-07-13T04:51:54;94773.69;;;43.86;23.82
1926;BME280;964;42.606;23.588;2023-07-13T04:54:20;94781.91;;;43.69;23.87
1926;BME280;964;42.606;23.588;2023-07-13T04:56:47;94782.63;;;43.77;23.99
1926;BME280;964;42.606;23.588;2023-07-13T04:59:14;94794.56;;;43.85;23.73
1926;BME280;964;42.606;23.588;2023-07-13T05:01:41;94786.16;;;43.93;23.75
1926;BME280;964;42.606;23.588;2023-07-13T05:04:08;94791.06;;;44.25;23.24
1926;BME280;964;42.606;23.588;2023-07-13T05:06:35;94793.69;;;44.23;23.55
1926;BME280;964;42.606;23.588;2023-07-13T05:09:02;94807.59;;;43.75;23.61
1926;BME280;964;42.606;23.588;2023-07-13T05:11:29;94811.50;;;44.35;23.79
1926;BME280;964;42.606;23.588;2023-07-13T05:13:57;94812.09;;;43.48;24.30
1926;BME280;964;42.606;23.588;2023-07-13T05:16:23;94800.88;;;44.41;23.74
1926;BME280;964;42.606;23.588;2023-07-13T05:18:50;94802.41;;;44.27;23.40
1926;BME280;964;42.606;23.588;2023-07-13T05:21:16;94799.31;;;44.55;23.08
1926;BME280;964;42.606;23.588;2023-07-13T05:23:45;94794.06;;;45.41;22.47
1926;BME280;964;42.606;23.588;2023-07-13T05:26:11;94803.97;;;45.42;23.41
1926;BME280;964;42.606;23.588;2023-07-13T05:28:38;94796.47;;;45.62;22.63
1926;BME280;964;42.606;23.588;2023-07-13T05:31:06;94800.91;;;45.72;22.76
1926;BME280;964;42.606;23.588;2023-07-13T05:33:33;94787.56;;;45.56;23.38
1926;BME280;964;42.606;23.588;2023-07-13T05:36:00;94794.94;;;46.03;22.65
1926;BME280;964;42.606;23.588;2023-07-13T05:38:27;94800.38;;;45.83;23.14
1926;BME280;964;42.606;23.588;2023-07-13T05:40:56;94801.38;;;45.96;22.90
1926;BME280;964;42.606;23.588;2023-07-13T05:43:23;94806.66;;;46.26;22.37
1926;BME280;964;42.606;23.588;2023-07-13T05:45:52;94805.97;;;46.52;22.26
1926;BME280;964;42.606;23.588;2023-07-13T05:48:18;94807.31;;;46.61;22.66
1926;BME280;964;42.606;23.588;2023-07-13T05:50:45;94813.22;;;46.55;22.08
1926;BME280;964;42.606;23.588;2023-07-13T05:53:12;94814.03;;;47.38;21.08
1926;BME280;964;42.606;23.588;2023-07-13T05:55:41;94798.94;;;47.24;21.28
1926;BME280;964;42.606;23.588;2023-07-13T05:58:12;94803.56;;;47.48;21.69
1926;BME280;964;42.606;23.588;2023-07-13T06:00:39;94806.75;;;47.91;21.21
1926;BME280;964;42.606;23.588;2023-07-13T06:03:06;94798.88;;;47.60;21.32
1926;BME280;964;42.606;23.588;2023-07-13T06:05:33;94793.50;;;47.55;21.01
1926;BME280;964;42.606;23.588;2023-07-13T06:08:00;94806.28;;;47.85;20.92
1926;BME280;964;42.606;23.588;2023-07-13T06:10:26;94801.31;;;48.12;20.53
1926;BME280;964;42.606;23.588;2023-07-13T06:12:53;94803.78;;;48.46;19.98
1926;BME280;964;42.606;23.588;2023-07-13T06:15:21;94802.63;;;48.11;20.43
1926;BME280;964;42.606;23.588;2023-07-13T06:17:48;94806.13;;;48.59;20.22
1926;BME280;964;42.606;23.588;2023-07-13T06:20:15;94811.22;;;48.13;20.37
1926;BME280;964;42.606;23.588;2023-07-13T06:22:42;94801.25;;;49.10;19.98
1926;BME280;964;42.606;23.588;2023-07-13T06:25:09;94802.72;;;48.61;20.38
1926;BME280;964;42.606;23.588;2023-07-13T06:27:35;94803.50;;;48.23;20.47
1926;BME280;964;42.606;23.588;2023-07-13T06:30:02;94798.44;;;49.10;20.57
1926;BME280;964;42.606;23.588;2023-07-13T06:32:31;94797.63;;;48.88;20.09
1926;BME280;964;42.606;23.588;2023-07-13T06:34:58;94792.44;;;48.85;20.00
1926;BME280;964;42.606;23.588;2023-07-13T06:37:24;94781.97;;;49.16;20.14
1926;BME280;964;42.606;23.588;2023-07-13T06:39:51;94796.56;;;49.34;19.37
1926;BME280;964;42.606;23.588;2023-07-13T06:42:17;94789.41;;;49.85;19.59
1926;BME280;964;42.606;23.588;2023-07-13T06:44:44;94771.22;;;49.97;20.09
1926;BME280;964;42.606;23.588;2023-07-13T06:47:11;94789.00;;;49.36;20.13
1926;BME280;964;42.606;23.588;2023-07-13T06:49:39;94784.47;;;49.95;19.97
1926;BME280;964;42.606;23.588;2023-07-13T06:52:06;94792.94;;;49.12;19.33
1926;BME280;964;42.606;23.588;2023-07-13T06:54:32;94792.34;;;49.13;18.85
1926;BME280;964;42.606;23.588;2023-07-13T06:57:00;94802.28;;;48.64;19.17
1926;BME280;964;42.606;23.588;2023-07-13T06:59:27;94795.38;;;49.37;18.48
1926;BME280;964;42.606;23.588;2023-07-13T07:01:53;94780.84;;;50.04;18.60
1926;BME280;964;42.606;23.588;2023-07-13T07:04:20;94797.75;;;49.00;18.86
1926;BME280;964;42.606;23.588;2023-07-13T07:06:48;94788.09;;;50.40;18.06
1926;BME280;964;42.606;23.588;2023-07-13T07:09:15;94786.97;;;51.01;17.65
1926;BME280;964;42.606;23.588;2023-07-13T07:11:42;94778.75;;;51.52;18.07
1926;BME280;964;42.606;23.588;2023-07-13T07:14:09;94779.09;;;51.58;17.42
1926;BME280;964;42.606;23.588;2023-07-13T07:16:35;94772.38;;;51.16;17.13
1926;BME280;964;42.606;23.588;2023-07-13T07:19:02;94778.63;;;52.35;17.23
1926;BME280;964;42.606;23.588;2023-07-13T07:21:29;94777.09;;;52.20;17.13
1926;BME280;964;42.606;23.588;2023-07-13T07:23:57;94779.88;;;52.32;16.56
1926;BME280;964;42.606;23.588;2023-07-13T07:26:25;94777.53;;;52.03;16.32
1926;BME280;964;42.606;23.588;2023-07-13T07:28:51;94785.00;;;51.50;17.05
1926;BME280;964;42.606;23.588;2023-07-13T07:31:18;94787.44;;;51.56;17.26
1926;BME280;964;42.606;23.588;2023-07-13T07:33:44;94783.13;;;52.15;16.64
1926;BME280;964;42.606;23.588;2023-07-13T07:36:11;94778.47;;;52.45;17.43
1926;BME280;964;42.606;23.588;2023-07-13T07:38:38;94765.63;;;52.69;16.46
1926;BME280;964;42.606;23.588;2023-07-13T07:41:06;94775.69;;;51.36;17.46
1926;BME280;964;42.606;23.588;2023-07-13T07:43:32;94771.06;;;52.14;16.45
1926;BME280;964;42.606;23.588;2023-07-13T07:45:59;94773.81;;;52.12;16.43
1926;BME280;964;42.606;23.588;2023-07-13T07:48:25;94764.75;;;52.53;16.58
1926;BME280;964;42.606;23.588;2023-07-13T07:50:52;94766.44;;;52.58;16.24
1926;BME280;964;42.606;23.588;2023-07-13T07:53:19;94763.50;;;52.05;16.21
1926;BME280;964;42.606;23.588;2023-07-13T07:55:45;94755.44;;;53.44;15.76
1926;BME280;964;42.606;23.588;2023-07-13T07:58:14;94753.63;;;52.96;16.42
1926;BME280;964;42.606;23.588;2023-07-13T08:00:40;94753.91;;;51.99;16.71
1926;BME280;964;42.606;23.588;2023-07-13T08:03:07;94750.69;;;52.55;16.79
1926;BME280;964;42.606;23.588;2023-07-13T08:05:35;94750.84;;;53.37;16.15
1926;BME280;964;42.606;23.588;2023-07-13T08:08:02;94738.13;;;53.94;14.76
1926;BME280;964;42.606;23.588;2023-07-13T08:10:28;94738.81;;;53.79;14.97
1926;BME280;964;42.606;23.588;2023-07-13T08:12:55;94736.78;;;54.24;14.60
1926;BME280;964;42.606;23.588;2023-07-13T08:15:23;94731.94;;;54.72;15.12
1926;BME280;964;42.606;23.588;2023-07-13T08:17:50;94717.81;;;55.05;15.61
1926;BME280;964;42.606;23.588;2023-07-13T08:20:16;94722.97;;;54.93;14.92
1926;BME280;964;42.606;23.588;2023-07-13T08:22:43;94719.00;;;53.95;15.66
1926;BME280;964;42.606;23.588;2023-07-13T08:25:10;94714.69;;;52.96;15.99
1926;BME280;964;42.606;23.588;2023-07-13T08:27:37;94727.06;;;52.75;16.81
1926;BME280;964;42.606;23.588;2023-07-13T08:30:05;94703.72;;;54.76;16.97
1926;BME280;964;42.606;23.588;2023-07-13T08:32:36;94702.94;;;54.29;15.92
1926;BME280;964;42.606;23.588;2023-07-13T08:35:05;94708.66;;;54.76;16.36
1926;BME280;964;42.606;23.588;2023-07-13T08:37:31;94716.59;;;53.32;16.13
1926;BME280;964;42.606;23.588;2023-07-13T08:39:58;94707.50;;;53.07;15.96
1926;BME280;964;42.606;23.588;2023-07-13T08:42:35;94710.38;;;53.50;16.49
1926;BME280;964;42.606;23.588;2023-07-13T08:45:11;94698.22;;;54.64;16.73
1926;BME280;964;42.606;23.588;2023-07-13T08:47:44;94698.97;;;53.48;16.04
1926;BME280;964;42.606;23.588;2023-07-13T08:50:14;94708.41;;;54.24;16.05
1926;BME280;964;42.606;23.588;2023-07-13T08:52:42;94703.34;;;53.51;16.36
1926;BME280;964;42.606;23.588;2023-07-13T08:55:15;94696.56;;;53.85;16.83
1926;BME280;964;42.606;23.588;2023-07-13T08:57:46;94694.69;;;53.76;16.11
1926;BME280;964;42.606;23.588;2023-07-13T09:00:15;94697.09;;;52.98;17.34
1926;BME280;964;42.606;23.588;2023-07-13T09:02:46;94686.09;;;54.48;17.04
1926;BME280;964;42.606;23.588;2023-07-13T09:05:18;94694.34;;;54.58;15.90
1926;BME280;964;42.606;23.588;2023-07-13T09:08:00;94706.63;;;53.88;15.90
1926;BME280;964;42.606;23.588;2023-07-13T09:10:30;94696.03;;;55.28;16.32
1926;BME280;964;42.606;23.588;2023-07-13T09:13:14;94694.97;;;55.52;16.17
1926;BME280;964;42.606;23.588;2023-07-13T09:15:47;94705.13;;;55.24;16.34
1926;BME280;964;42.606;23.588;2023-07-13T09:18:22;94707.41;;;55.61;15.69
1926;BME280;964;42.606;23.588;2023-07-13T09:20:53;94709.78;;;55.66;16.73
1926;BME280;964;42.606;23.588;2023-07-13T09:23:24;94715.59;;;56.22;16.00
1926;BME280;964;42.606;23.588;2023-07-13T09:25:53;94718.38;;;56.94;14.88
1926;BME280;964;42.606;23.588;2023-07-13T09:28:23;94715.91;;;57.04;15.03
1926;BME280;964;42.606;23.588;2023-07-13T09:30:54;94716.56;;;56.46;15.12
1926;BME280;964;42.606;23.588;2023-07-13T09:33:23;94720.59;;;55.70;15.92
1926;BME280;964;42.606;23.588;2023-07-13T09:35:54;94716.72;;;56.50;15.42
1926;BME280;964;42.606;23.588;2023-07-13T09:38:24;94709.31;;;56.80;15.14
1926;BME280;964;42.606;23.588;2023-07-13T09:41:01;94713.63;;;56.81;14.57
1926;BME280;964;42.606;23.588;2023-07-13T09:43:34;94707.28;;;56.28;15.61
1926;BME280;964;42.606;23.588;2023-07-13T09:46:01;94717.34;;;54.95;15.98
1926;BME280;964;42.606;23.588;2023-07-13T09:48:35;94717.00;;;56.76;14.81
1926;BME280;964;42.606;23.588;2023-07-13T09:51:07;94717.78;;;56.05;14.94
1926;BME280;964;42.606;23.588;2023-07-13T09:53:41;94707.03;;;56.04;15.63
1926;BME280;964;42.606;23.588;2023-07-13T09:56:19;94713.31;;;56.36;14.59
1926;BME280;964;42.606;23.588;2023-07-13T09:58:46;94709.59;;;56.88;14.42
1926;BME280;964;42.606;23.588;2023-07-13T10:01:12;94700.38;;;56.15;15.02
1926;BME280;964;42.606;23.588;2023-07-13T10:03:52;94692.56;;;56.16;15.07
1926;BME280;964;42.606;23.588;2023-07-13T10:06:21;94689.78;;;57.73;14.84
1926;BME280;964;42.606;23.588;2023-07-13T10:08:49;94687.13;;;55.86;14.95
1926;BME280;964;42.606;23.588;2023-07-13T10:11:19;94690.78;;;55.71;15.42
1926;BME280;964;42.606;23.588;2023-07-13T10:13:53;94683.56;;;56.41;15.28
1926;BME280;964;42.606;23.588;2023-07-13T10:16:21;94677.28;;;57.41;14.40
1926;BME280;964;42.606;23.588;2023-07-13T10:18:53;94670.00;;;57.79;14.42
1926;BME280;964;42.606;23.588;2023-07-13T10:21:27;94676.88;;;58.16;13.97
1926;BME280;964;42.606;23.588;2023-07-13T10:23:57;94674.75;;;57.94;14.14
1926;BME280;964;42.606;23.588;2023-07-13T10:26:32;94667.75;;;56.00;14.80
1926;BME280;964;42.606;23.588;2023-07-13T10:29:03;94660.19;;;55.72;15.29
1926;BME280;964;42.606;23.588;2023-07-13T10:31:40;94657.72;;;57.12;14.30
1926;BME280;964;42.606;23.588;2023-07-13T10:34:10;94670.00;;;56.39;14.98
1926;BME280;964;42.606;23.588;2023-07-13T10:36:40;94666.75;;;57.26;14.72
1926;BME280;964;42.606;23.588;2023-07-13T10:39:15;94663.09;;;57.86;14.28
1926;BME280;964;42.606;23.588;2023-07-13T10:41:44;94650.88;;;58.06;14.51
1926;BME280;964;42.606;23.588;2023-07-13T10:44:19;94652.59;;;58.62;14.00
1926;BME280;964;42.606;23.588;2023-07-13T10:46:51;94667.22;;;57.81;14.33
1926;BME280;964;42.606;23.588;2023-07-13T10:49:20;94653.91;;;58.12;14.27
1926;BME280;964;42.606;23.588;2023-07-13T10:51:47;94649.63;;;58.34;14.35
1926;BME280;964;42.606;23.588;2023-07-13T10:54:17;94654.22;;;57.76;13.91
1926;BME280;964;42.606;23.588;2023-07-13T10:56:45;94641.78;;;58.11;13.92
1926;BME280;964;42.606;23.588;2023-07-13T10:59:15;94629.94;;;59.79;12.28
1926;BME280;964;42.606;23.588;2023-07-13T11:01:52;94636.47;;;58.99;13.97
1926;BME280;964;42.606;23.588;2023-07-13T11:04:23;94627.06;;;59.22;13.05
1926;BME280;964;42.606;23.588;2023-07-13T11:06:53;94619.94;;;59.51;13.27
1926;BME280;964;42.606;23.588;2023-07-13T11:09:35;94614.47;;;59.91;14.14
1926;BME280;964;42.606;23.588;2023-07-13T11:12:07;94611.13;;;60.32;12.83
1926;BME280;964;42.606;23.588;2023-07-13T11:14:37;94604.88;;;60.08;13.33
1926;BME280;964;42.606;23.588;2023-07-13T11:17:24;94602.81;;;60.46;13.88
1926;BME280;964;42.606;23.588;2023-07-13T11:19:53;94601.78;;;59.68;12.63
1926;BME280;964;42.606;23.588;2023-07-13T11:22:25;94600.19;;;60.24;13.96
1926;BME280;964;42.606;23.588;2023-07-13T11:25:25;94591.03;;;61.02;14.56
1926;BME280;964;42.606;23.588;2023-07-13T11:28:05;94583.38;;;60.41;13.87
1926;BME280;964;42.606;23.588;2023-07-13T11:30:36;94593.34;;;58.39;13.64
1926;BME280;964;42.606;23.588;2023-07-13T11:33:17;94592.63;;;59.16;14.73
1926;BME280;964;42.606;23.588;2023-07-13T11:35:50;94592.69;;;59.48;13.49
1926;BME280;964;42.606;23.588;2023-07-13T11:38:20;94588.78;;;57.39;14.64
1926;BME280;964;42.606;23.588;2023-07-13T11:40:48;94581.34;;;57.30;14.83
1926;BME280;964;42.606;23.588;2023-07-13T11:43:16;94582.41;;;57.62;15.02
1926;BME280;964;42.606;23.588;2023-07-13T11:45:43;94584.94;;;57.09;14.25
1926;BME280;964;42.606;23.588;2023-07-13T11:48:22;94586.03;;;57.65;13.80
1926;BME280;964;42.606;23.588;2023-07-13T11:50:56;94570.50;;;58.90;13.11
1926;BME280;964;42.606;23.588;2023-07-13T11:53:26;94574.81;;;57.92;13.80
1926;BME280;964;42.606;23.588;2023-07-13T11:55:53;94586.25;;;57.05;13.97
1926;BME280;964;42.606;23.588;2023-07-13T11:58:23;94575.94;;;57.16;14.25
1926;BME280;964;42.606;23.588;2023-07-13T12:00:53;94567.38;;;57.38;13.55
1926;BME280;964;42.606;23.588;2023-07-13T12:03:22;94568.66;;;58.75;13.21
1926;BME280;964;42.606;23.588;2023-07-13T12:05:59;94564.22;;;59.24;12.73
1926;BME280;964;42.606;23.588;2023-07-13T12:08:26;94557.94;;;59.59;13.50
1926;BME280;964;42.606;23.588;2023-07-13T12:10:58;94564.94;;;57.95;13.42
1926;BME280;964;42.606;23.588;2023-07-13T12:13:27;94567.38;;;57.83;13.99
1926;BME280;964;42.606;23.588;2023-07-13T12:15:54;94558.66;;;58.25;13.22
1926;BME280;964;42.606;23.588;2023-07-13T12:18:28;94555.59;;;58.94;12.61
1926;BME280;964;42.606;23.588;2023-07-13T12:20:58;94549.97;;;59.26;13.46
1926;BME280;964;42.606;23.588;2023-07-13T12:23:28;94553.50;;;57.06;13.96
1926;BME280;964;42.606;23.588;2023-07-13T12:25:57;94536.16;;;59.16;13.34
1926;BME280;964;42.606;23.588;2023-07-13T12:28:31;94534.44;;;59.05;14.83
1926;BME280;964;42.606;23.588;2023-07-13T12:31:00;94528.09;;;59.38;12.09
1926;BME280;964;42.606;23.588;2023-07-13T12:33:28;94513.75;;;60.34;13.31
1926;BME280;964;42.606;23.588;2023-07-13T12:35:55;94514.75;;;59.17;12.79
1926;BME280;964;42.606;23.588;2023-07-13T12:38:25;94511.88;;;60.13;12.14
1926;BME280;964;42.606;23.588;2023-07-13T12:40:52;94509.50;;;60.01;13.00
1926;BME280;964;42.606;23.588;2023-07-13T12:43:20;94514.00;;;59.17;13.32
1926;BME280;964;42.606;23.588;2023-07-13T12:45:56;94513.50;;;58.45;13.38
1926;BME280;964;42.606;23.588;2023-07-13T12:48:23;94513.19;;;58.84;13.37
1926;BME280;964;42.606;23.588;2023-07-13T12:50:50;94515.38;;;57.39;13.61
1926;BME280;964;42.606;23.588;2023-07-13T12:53:21;94507.13;;;59.28;12.66
1926;BME280;964;42.606;23.588;2023-07-13T12:55:53;94490.25;;;60.04;11.67
1926;BME280;964;42.606;23.588;2023-07-13T12:58:25;94496.19;;;60.16;12.34
1926;BME280;964;42.606;23.588;2023-07-13T13:00:54;94499.50;;;59.38;12.77
1926;BME280;964;42.606;23.588;2023-07-13T13:03:26;94498.66;;;59.04;12.91
1926;BME280;964;42.606;23.588;2023-07-13T13:05:57;94500.16;;;58.79;12.39
1926;BME280;964;42.606;23.588;2023-07-13T13:08:25;94495.16;;;59.08;12.57
1926;BME280;964;42.606;23.588;2023-07-13T13:10:53;94479.34;;;60.32;13.47
1926;BME280;964;42.606;23.588;2023-07-13T13:13:20;94484.94;;;58.45;12.96
1926;BME280;964;42.606;23.588;2023-07-13T13:15:47;94484.72;;;57.40;13.39
1926;BME280;964;42.606;23.588;2023-07-13T13:18:17;94480.97;;;57.12;14.12
1926;BME280;964;42.606;23.588;2023-07-13T13:20:45;94477.81;;;58.44;13.36
1926;BME280;964;42.606;23.588;2023-07-13T13:23:13;94468.63;;;58.47;13.31
1926;BME280;964;42.606;23.588;2023-07-13T13:25:43;94482.63;;;58.91;14.60
1926;BME280;964;42.606;23.588;2023-07-13T13:28:15;94475.00;;;59.02;12.35
1926;BME280;964;42.606;23.588;2023-07-13T13:30:43;94474.25;;;58.20;12.74
1926;BME280;964;42.606;23.588;2023-07-13T13:33:11;94465.44;;;58.63;12.81